Time;durP1;ratioP1;P1;durP2;ratioP2;P2;SDS_P1;SDS_P2;PMS_P1;PMS_P2;Temp;Humidity;BMP_temperature;BMP_pressure;BME280_temperature;BME280_humidity;BME280_pressure;Samples;Min_cycle;Max_cycle;Signal;HPM_P1;HPM_P2
2022/06/25 00:01:00;;;;;;;7.40;6.75;;;25.20;99.00;;;;;;5047833;28;20299;-74
2022/06/25 00:03:27;;;;;;;7.10;6.50;;;25.20;99.10;;;;;;5047879;28;20667;-73
2022/06/25 00:05:55;;;;;;;7.65;6.90;;;25.20;99.20;;;;;;5047954;28;20231;-74
2022/06/25 00:08:23;;;;;;;7.63;7.05;;;25.20;99.30;;;;;;5047913;28;20467;-74
2022/06/25 00:10:51;;;;;;;7.57;6.88;;;25.20;99.40;;;;;;5047378;28;20628;-74
2022/06/25 00:13:17;;;;;;;8.52;7.03;;;25.10;99.60;;;;;;5047516;28;20287;-74
2022/06/25 00:15:44;;;;;;;8.00;7.20;;;25.10;99.70;;;;;;5036218;28;20212;-74
2022/06/25 00:18:11;;;;;;;8.60;7.15;;;25.10;99.90;;;;;;5048020;28;20201;-74
2022/06/25 00:20:38;;;;;;;7.55;6.85;;;25.00;99.90;;;;;;5048003;28;20203;-74
2022/06/25 00:23:06;;;;;;;7.47;6.85;;;25.00;99.90;;;;;;5035656;28;20197;-75
2022/06/25 00:25:33;;;;;;;8.18;7.47;;;25.00;99.90;;;;;;5028233;28;20228;-75
2022/06/25 00:28:00;;;;;;;7.70;6.95;;;25.00;99.90;;;;;;5037228;28;20200;-75
2022/06/25 00:30:28;;;;;;;8.15;7.35;;;25.00;99.90;;;;;;5047827;28;20255;-75
2022/06/25 00:33:07;;;;;;;7.70;6.68;;;25.00;99.90;;;;;;5047052;28;20208;-75
2022/06/25 00:35:34;;;;;;;7.53;6.90;;;24.90;99.90;;;;;;5042214;28;20211;-72
2022/06/25 00:38:01;;;;;;;7.40;6.75;;;24.90;99.90;;;;;;5041452;28;20208;-72
2022/06/25 00:40:29;;;;;;;8.52;7.10;;;24.90;99.90;;;;;;5047462;28;20240;-72
2022/06/25 00:43:39;;;;;;;8.93;7.70;;;24.90;99.90;;;;;;5047623;28;20619;-73
2022/06/25 00:46:06;;;;;;;7.88;7.20;;;24.80;99.90;;;;;;5047438;28;20285;-73
2022/06/25 00:48:45;;;;;;;8.05;7.45;;;24.80;99.90;;;;;;5047605;28;20249;-73
2022/06/25 00:51:14;;;;;;;8.02;7.32;;;24.80;99.90;;;;;;5047144;28;20195;-72
2022/06/25 00:53:42;;;;;;;8.57;7.45;;;24.80;99.90;;;;;;5047605;28;20219;-72
2022/06/25 00:56:12;;;;;;;8.63;7.63;;;24.80;99.90;;;;;;5047483;28;20219;-72
2022/06/25 00:58:41;;;;;;;7.72;7.03;;;24.70;99.90;;;;;;5047116;28;20200;-72
2022/06/25 01:01:09;;;;;;;8.32;7.63;;;24.70;99.90;;;;;;5047453;28;20211;-72
2022/06/25 01:03:37;;;;;;;8.15;7.50;;;24.70;99.90;;;;;;5047234;28;20566;-72
2022/06/25 01:06:04;;;;;;;8.00;7.25;;;24.70;99.90;;;;;;5046947;28;20248;-72
2022/06/25 01:08:31;;;;;;;8.82;7.95;;;24.60;99.90;;;;;;5047146;28;20208;-72
2022/06/25 01:10:58;;;;;;;7.38;6.78;;;24.60;99.90;;;;;;5047383;28;20208;-74
2022/06/25 01:13:26;;;;;;;7.63;6.93;;;24.60;99.90;;;;;;5039166;28;20205;-74
2022/06/25 01:15:53;;;;;;;11.18;7.47;;;24.50;99.90;;;;;;5034186;28;20212;-74
2022/06/25 01:18:29;;;;;;;8.18;7.32;;;24.50;99.90;;;;;;5047233;28;20208;-74
2022/06/25 01:20:56;;;;;;;8.00;7.40;;;24.50;99.90;;;;;;5047830;28;20207;-75
2022/06/25 01:23:24;;;;;;;7.50;6.93;;;24.50;99.90;;;;;;5046231;28;20207;-76
2022/06/25 01:25:51;;;;;;;8.27;7.50;;;24.40;99.90;;;;;;5051724;28;20226;-76
2022/06/25 01:28:18;;;;;;;8.45;7.65;;;24.40;99.90;;;;;;5050690;28;20231;-74
2022/06/25 01:30:45;;;;;;;8.55;7.55;;;24.40;99.90;;;;;;5051368;28;20200;-75
2022/06/25 01:33:12;;;;;;;8.45;7.75;;;24.40;99.90;;;;;;5050852;28;20208;-74
2022/06/25 01:35:38;;;;;;;8.15;7.50;;;24.40;99.90;;;;;;5051135;28;20230;-74
2022/06/25 01:38:20;;;;;;;7.70;7.18;;;24.40;99.90;;;;;;5050977;28;20208;-75
2022/06/25 01:40:48;;;;;;;9.00;8.20;;;24.30;99.90;;;;;;5037276;28;20655;-75
2022/06/25 01:43:40;;;;;;;8.55;7.75;;;24.30;99.90;;;;;;5044462;28;20209;-76
2022/06/25 01:46:08;;;;;;;8.63;7.75;;;24.30;99.90;;;;;;5030939;28;20236;-75
2022/06/25 01:48:57;;;;;;;8.15;7.47;;;24.30;99.90;;;;;;5030417;28;20220;-75
2022/06/25 01:54:46;;;;;;;8.70;7.85;;;24.20;99.90;;;;;;5031016;28;20192;-76
2022/06/25 02:00:36;;;;;;;8.63;7.93;;;24.10;99.90;;;;;;5031045;28;20176;-76
2022/06/25 02:03:27;;;;;;;7.97;7.30;;;24.10;99.90;;;;;;5030696;28;20209;-76
2022/06/25 02:06:00;;;;;;;7.88;6.90;;;24.10;99.90;;;;;;5030171;28;20233;-76
2022/06/25 02:08:32;;;;;;;8.38;7.60;;;24.00;99.90;;;;;;5030248;28;20610;-76
2022/06/25 02:11:00;;;;;;;8.60;7.78;;;24.00;99.90;;;;;;5030039;28;20247;-76
2022/06/25 02:13:30;;;;;;;8.27;7.47;;;23.90;99.90;;;;;;5042434;28;20236;-76
2022/06/25 02:15:59;;;;;;;8.07;7.28;;;23.80;99.90;;;;;;5050287;28;20666;-76
2022/06/25 02:19:03;;;;;;;8.98;8.07;;;23.80;99.90;;;;;;5050280;28;20208;-75
2022/06/25 02:21:31;;;;;;;10.40;8.05;;;23.70;99.90;;;;;;5050168;28;20560;-75
2022/06/25 02:23:57;;;;;;;8.45;7.70;;;23.70;99.90;;;;;;5049571;28;20248;-75
2022/06/25 02:26:24;;;;;;;8.73;7.93;;;23.70;99.90;;;;;;5050099;28;20228;-75
2022/06/25 02:29:06;;;;;;;8.38;7.60;;;23.60;99.90;;;;;;5049602;28;20235;-77
2022/06/25 02:31:36;;;;;;;8.00;7.18;;;23.60;99.90;;;;;;5050010;28;20893;-77
2022/06/25 02:34:02;;;;;;;9.23;8.32;;;23.60;99.90;;;;;;5049332;28;20204;-76
2022/06/25 02:36:29;;;;;;;8.82;7.97;;;23.60;99.90;;;;;;5031069;28;20215;-77
2022/06/25 02:38:58;;;;;;;8.43;7.75;;;23.60;99.90;;;;;;5049521;28;20212;-75
2022/06/25 02:41:25;;;;;;;9.50;8.70;;;23.50;99.90;;;;;;5049273;28;20244;-74
2022/06/25 02:44:07;;;;;;;9.85;7.90;;;23.50;99.90;;;;;;5040329;28;20201;-75
2022/06/25 02:46:37;;;;;;;8.50;7.70;;;23.50;99.90;;;;;;5029583;28;20250;-75
2022/06/25 02:49:15;;;;;;;10.13;8.55;;;23.40;99.90;;;;;;5029655;28;20291;-75
2022/06/25 02:55:06;;;;;;;9.20;8.32;;;23.40;99.90;;;;;;5030026;28;20188;-76
2022/06/25 03:00:55;;;;;;;9.10;8.27;;;23.30;99.90;;;;;;5029693;28;20628;-75
2022/06/25 03:09:26;;;;;;;8.93;8.23;;;23.20;99.90;;;;;;4986688;28;20236;-73
2022/06/25 03:15:15;;;;;;;8.98;8.27;;;23.20;99.90;;;;;;5030480;28;20183;-74
2022/06/25 03:21:03;;;;;;;9.30;8.50;;;23.20;99.90;;;;;;5028761;28;20595;-75
2022/06/25 03:24:03;;;;;;;9.10;8.40;;;23.20;99.90;;;;;;5028930;28;20209;-74
2022/06/25 03:29:12;;;;;;;9.93;8.95;;;23.20;99.90;;;;;;5005123;28;20239;-75
2022/06/25 03:35:00;;;;;;;9.70;8.85;;;23.20;99.90;;;;;;4988293;28;20590;-75
2022/06/25 03:43:49;;;;;;;10.02;9.23;;;23.30;99.90;;;;;;4997186;28;20233;-73
2022/06/25 03:46:16;;;;;;;10.07;9.18;;;23.30;99.90;;;;;;4985802;28;20238;-73
2022/06/25 03:49:16;;;;;;;17.27;9.40;;;23.30;99.90;;;;;;4986490;28;20217;-73
2022/06/25 03:51:42;;;;;;;10.50;9.63;;;23.30;99.90;;;;;;5005942;28;20341;-73
2022/06/25 03:54:24;;;;;;;10.68;9.73;;;23.30;99.90;;;;;;5005320;28;20221;-74
2022/06/25 04:00:15;;;;;;;10.90;10.00;;;23.30;99.90;;;;;;5017900;28;20688;-75
2022/06/25 04:06:03;;;;;;;11.63;10.65;;;23.30;99.90;;;;;;5031451;28;20204;-75
2022/06/25 04:08:46;;;;;;;13.55;11.75;;;23.30;99.90;;;;;;5028071;28;20211;-74
2022/06/25 04:11:12;;;;;;;10.50;9.52;;;23.30;99.90;;;;;;5028136;28;20197;-74
2022/06/25 04:14:20;;;;;;;11.70;10.63;;;23.40;99.90;;;;;;5037221;28;20689;-73
2022/06/25 04:16:49;;;;;;;12.10;11.07;;;23.30;99.90;;;;;;5029238;28;20201;-74
2022/06/25 04:19:40;;;;;;;12.55;11.27;;;23.40;99.90;;;;;;5027420;28;20205;-76
2022/06/25 04:25:29;;;;;;;12.55;11.43;;;23.40;99.90;;;;;;5028851;28;20192;-76
2022/06/25 04:31:09;;;;;;;13.23;12.02;;;23.50;99.90;;;;;;5047052;28;20720;-73
2022/06/25 04:37:21;;;;;;;14.05;12.70;;;23.50;99.90;;;;;;5043608;28;20641;-73
2022/06/25 04:39:47;;;;;;;14.38;12.95;;;23.50;99.90;;;;;;5027436;28;20201;-74
2022/06/25 04:42:14;;;;;;;14.90;13.60;;;23.60;99.90;;;;;;5027486;28;20232;-74
2022/06/25 04:44:41;;;;;;;17.05;14.57;;;23.60;99.90;;;;;;5045640;28;20208;-74
2022/06/25 04:47:09;;;;;;;18.25;16.45;;;23.60;99.90;;;;;;5030801;28;20232;-76
2022/06/25 04:49:35;;;;;;;17.42;15.88;;;23.60;99.90;;;;;;5041406;28;20730;-76
2022/06/25 04:52:02;;;;;;;18.05;16.17;;;23.60;99.90;;;;;;5047288;28;20197;-75
2022/06/25 04:54:30;;;;;;;17.98;16.30;;;23.60;99.90;;;;;;5047345;28;20204;-75
2022/06/25 04:56:57;;;;;;;19.17;17.48;;;23.60;99.90;;;;;;5033435;28;20209;-75
2022/06/25 04:59:24;;;;;;;18.88;17.08;;;23.60;99.90;;;;;;5031624;28;20223;-75
2022/06/25 05:01:51;;;;;;;18.83;17.08;;;23.60;99.90;;;;;;5031864;28;20212;-75
2022/06/25 05:04:18;;;;;;;19.20;17.40;;;23.60;99.90;;;;;;5031262;28;20668;-75
2022/06/25 05:06:45;;;;;;;18.65;16.98;;;23.70;99.90;;;;;;5031481;28;20228;-75
2022/06/25 05:09:12;;;;;;;20.38;18.45;;;23.70;99.90;;;;;;5031352;28;20209;-75
2022/06/25 05:11:40;;;;;;;20.63;18.60;;;23.70;99.90;;;;;;5031576;28;20805;-75
2022/06/25 05:14:07;;;;;;;20.30;18.52;;;23.70;99.90;;;;;;5044912;28;20210;-75
2022/06/25 05:16:33;;;;;;;20.48;18.38;;;23.70;99.90;;;;;;5050536;28;20212;-75
2022/06/25 05:19:00;;;;;;;20.33;18.52;;;23.70;99.90;;;;;;5050431;28;20223;-75
2022/06/25 05:21:27;;;;;;;20.27;18.63;;;23.70;99.90;;;;;;5050988;28;20558;-75
2022/06/25 05:23:54;;;;;;;20.45;18.50;;;23.80;99.90;;;;;;5051122;28;20658;-75
2022/06/25 05:26:21;;;;;;;21.42;19.25;;;23.80;99.90;;;;;;5043575;28;20671;-75
2022/06/25 05:28:49;;;;;;;20.70;18.85;;;23.80;99.90;;;;;;5031379;28;20238;-76
2022/06/25 05:31:16;;;;;;;21.08;19.10;;;23.80;99.90;;;;;;5051114;28;20207;-71
2022/06/25 05:33:42;;;;;;;21.05;19.15;;;23.90;99.90;;;;;;5050983;28;20220;-72
2022/06/25 05:36:09;;;;;;;19.63;17.83;;;23.90;99.90;;;;;;5044040;28;20201;-74
2022/06/25 05:38:36;;;;;;;20.98;18.98;;;23.90;99.90;;;;;;5030759;28;20212;-74
2022/06/25 05:41:08;;;;;;;22.10;18.80;;;23.90;99.90;;;;;;5047589;28;20236;-75
2022/06/25 05:43:35;;;;;;;21.35;19.42;;;23.90;99.90;;;;;;5041905;28;20208;-74
2022/06/25 05:46:05;;;;;;;20.75;18.73;;;24.00;99.90;;;;;;5038624;28;20250;-74
2022/06/25 05:48:32;;;;;;;19.90;18.02;;;24.00;99.90;;;;;;5028442;28;20579;-75
2022/06/25 05:50:59;;;;;;;22.05;19.80;;;23.90;99.90;;;;;;5028926;28;20215;-75
2022/06/25 05:53:27;;;;;;;20.50;18.60;;;24.00;99.90;;;;;;5045559;28;20238;-74
2022/06/25 05:55:54;;;;;;;19.52;17.77;;;24.00;99.90;;;;;;5046067;28;20702;-74
2022/06/25 05:58:22;;;;;;;18.83;17.15;;;24.00;99.90;;;;;;5029298;28;20224;-74
2022/06/25 06:00:49;;;;;;;19.33;17.58;;;24.00;99.90;;;;;;5029166;28;20697;-74
2022/06/25 06:03:19;;;;;;;18.58;16.98;;;24.00;99.90;;;;;;5029139;28;20201;-74
2022/06/25 06:05:45;;;;;;;18.02;16.58;;;24.00;99.90;;;;;;5030144;28;20212;-74
2022/06/25 06:08:12;;;;;;;17.50;16.00;;;24.00;99.90;;;;;;5048462;28;20339;-74
2022/06/25 06:10:39;;;;;;;17.38;15.57;;;24.10;99.90;;;;;;5047145;28;20734;-73
2022/06/25 06:13:06;;;;;;;14.85;13.35;;;24.10;99.90;;;;;;5042827;28;20239;-73
2022/06/25 06:15:33;;;;;;;14.43;13.30;;;24.10;99.90;;;;;;5042506;28;20216;-74
2022/06/25 06:17:59;;;;;;;13.10;12.02;;;24.10;99.90;;;;;;5048419;28;20212;-74
2022/06/25 06:20:28;;;;;;;14.30;13.07;;;24.20;99.90;;;;;;5048014;28;20695;-74
2022/06/25 06:22:55;;;;;;;16.75;15.45;;;24.20;99.90;;;;;;5047539;28;20204;-73
2022/06/25 06:25:21;;;;;;;16.08;14.68;;;24.00;99.90;;;;;;5047930;28;20824;-74
2022/06/25 06:27:48;;;;;;;14.27;13.07;;;23.90;99.90;;;;;;5048229;28;20239;-73
2022/06/25 06:30:15;;;;;;;14.38;13.05;;;24.00;99.90;;;;;;5047925;28;20204;-73
2022/06/25 06:32:42;;;;;;;15.15;13.85;;;24.10;99.90;;;;;;5043131;28;20205;-74
2022/06/25 06:35:09;;;;;;;16.00;13.75;;;24.20;99.90;;;;;;5028072;28;20208;-73
2022/06/25 06:37:37;;;;;;;14.55;13.30;;;24.20;99.90;;;;;;5027856;28;20213;-74
2022/06/25 06:40:05;;;;;;;14.43;13.10;;;24.30;99.90;;;;;;5028941;28;20201;-74
2022/06/25 06:42:32;;;;;;;14.93;13.45;;;24.40;99.90;;;;;;5028900;28;20207;-76
2022/06/25 06:44:58;;;;;;;15.07;13.63;;;24.40;99.90;;;;;;5048364;28;20201;-74
2022/06/25 06:47:25;;;;;;;14.95;13.55;;;24.40;99.90;;;;;;5049688;28;20235;-74
2022/06/25 06:49:52;;;;;;;14.93;13.43;;;24.50;99.90;;;;;;5034229;28;20201;-74
2022/06/25 06:52:19;;;;;;;15.38;12.95;;;24.50;99.90;;;;;;5036258;28;20204;-74
2022/06/25 06:54:47;;;;;;;15.00;13.70;;;24.60;99.90;;;;;;5049310;28;20204;-74
2022/06/25 06:57:14;;;;;;;16.42;15.02;;;24.70;99.90;;;;;;5049425;28;20222;-74
2022/06/25 06:59:41;;;;;;;17.00;15.32;;;24.70;99.90;;;;;;5036756;28;20205;-74
2022/06/25 07:02:08;;;;;;;17.15;15.57;;;24.70;99.90;;;;;;5029463;28;20292;-74
2022/06/25 07:04:35;;;;;;;16.40;14.82;;;24.80;99.90;;;;;;5029260;28;20216;-74
2022/06/25 07:07:02;;;;;;;16.45;14.95;;;24.80;99.90;;;;;;5029470;28;20585;-74
2022/06/25 07:09:29;;;;;;;15.48;14.15;;;24.80;99.90;;;;;;5039333;28;20545;-74
2022/06/25 07:11:57;;;;;;;16.10;14.73;;;24.90;99.90;;;;;;5049164;28;20208;-74
2022/06/25 07:14:24;;;;;;;16.25;14.82;;;24.90;99.90;;;;;;5048869;28;20219;-74
2022/06/25 07:16:51;;;;;;;15.27;13.82;;;24.90;99.90;;;;;;5049160;28;20211;-74
2022/06/25 07:19:17;;;;;;;16.00;14.60;;;25.00;99.90;;;;;;5040693;28;20225;-74
2022/06/25 07:21:44;;;;;;;15.90;14.40;;;25.00;99.90;;;;;;5027657;28;20205;-74
2022/06/25 07:24:11;;;;;;;16.05;14.73;;;24.90;99.90;;;;;;5028874;28;20215;-74
2022/06/25 07:26:38;;;;;;;16.40;14.95;;;24.90;99.90;;;;;;5028940;28;20196;-74
2022/06/25 07:29:06;;;;;;;14.93;13.60;;;24.90;99.90;;;;;;5033663;28;20789;-74
2022/06/25 07:31:33;;;;;;;14.32;12.95;;;24.90;99.90;;;;;;5048929;28;20287;-74
2022/06/25 07:33:59;;;;;;;14.75;13.45;;;24.90;99.90;;;;;;5049142;28;20211;-74
2022/06/25 07:36:26;;;;;;;14.52;13.23;;;25.00;99.90;;;;;;5048478;28;20208;-74
2022/06/25 07:38:53;;;;;;;14.60;13.40;;;25.00;99.90;;;;;;5048093;28;20579;-74
2022/06/25 07:41:20;;;;;;;14.80;13.60;;;25.10;99.90;;;;;;5048470;28;20247;-74
2022/06/25 07:43:47;;;;;;;14.02;12.73;;;25.10;99.90;;;;;;5038071;28;20215;-74
2022/06/25 07:46:15;;;;;;;14.48;13.13;;;25.20;99.90;;;;;;5028853;28;20584;-74
2022/06/25 07:48:42;;;;;;;14.48;13.27;;;25.20;99.90;;;;;;5028572;28;20235;-74
2022/06/25 07:53:53;;;;;;;14.23;12.98;;;25.30;99.90;;;;;;5028140;28;20196;-74
2022/06/25 07:56:20;;;;;;;13.40;12.23;;;25.50;99.90;;;;;;5028596;28;20220;-74
2022/06/25 07:58:47;;;;;;;14.02;12.90;;;25.50;99.90;;;;;;5029127;28;20196;-74
2022/06/25 08:01:15;;;;;;;14.00;12.65;;;25.60;99.90;;;;;;5028334;28;20212;-74
2022/06/25 08:03:42;;;;;;;13.88;12.75;;;25.60;99.90;;;;;;5028017;28;20205;-74
2022/06/25 08:06:10;;;;;;;14.13;12.82;;;25.60;99.90;;;;;;5027818;28;20668;-74
2022/06/25 08:08:37;;;;;;;13.60;12.45;;;25.70;99.90;;;;;;5041959;28;20294;-74
2022/06/25 08:11:07;;;;;;;13.30;11.93;;;25.70;99.90;;;;;;5028225;28;20223;-74
2022/06/25 08:13:34;;;;;;;13.80;12.75;;;25.80;99.90;;;;;;5037284;28;20201;-74
2022/06/25 08:16:01;;;;;;;13.55;12.45;;;25.80;99.90;;;;;;5045647;28;20212;-74
2022/06/25 08:18:29;;;;;;;13.82;12.73;;;25.80;99.90;;;;;;5047705;28;20215;-74
2022/06/25 08:20:56;;;;;;;13.82;12.57;;;25.90;99.90;;;;;;5047695;28;20611;-73
2022/06/25 08:23:23;;;;;;;13.70;12.60;;;25.90;99.90;;;;;;5047238;28;20240;-74
2022/06/25 08:25:49;;;;;;;13.32;12.20;;;25.90;99.90;;;;;;5027956;28;20208;-74
2022/06/25 08:28:18;;;;;;;13.90;12.50;;;25.90;99.90;;;;;;5027758;28;20239;-74
2022/06/25 08:30:45;;;;;;;14.50;13.38;;;26.00;99.90;;;;;;5027551;28;20219;-74
2022/06/25 08:33:12;;;;;;;16.15;14.60;;;26.00;99.90;;;;;;5046020;28;20623;-74
2022/06/25 08:35:40;;;;;;;17.17;15.70;;;26.00;99.90;;;;;;5047617;28;20204;-74
2022/06/25 08:38:07;;;;;;;14.57;13.27;;;26.10;99.90;;;;;;5047726;28;20204;-74
2022/06/25 08:40:34;;;;;;;13.00;11.90;;;26.10;99.90;;;;;;5047200;28;20238;-74
2022/06/25 08:43:02;;;;;;;12.70;11.80;;;26.10;99.90;;;;;;5035731;28;20679;-74
2022/06/25 08:45:29;;;;;;;14.15;12.77;;;26.20;99.90;;;;;;5046960;28;20266;-74
2022/06/25 08:47:59;;;;;;;12.60;11.63;;;26.30;99.90;;;;;;5047230;28;20709;-74
2022/06/25 08:50:26;;;;;;;13.88;12.60;;;26.30;99.90;;;;;;5044732;28;20287;-74
2022/06/25 08:52:56;;;;;;;13.77;12.68;;;26.30;99.90;;;;;;5039925;28;20212;-74
2022/06/25 08:55:30;;;;;;;14.75;13.55;;;26.40;99.90;;;;;;5047268;28;20207;-74
2022/06/25 08:57:57;;;;;;;13.98;12.77;;;26.40;99.90;;;;;;5047689;28;20227;-74
2022/06/25 09:00:25;;;;;;;14.70;13.18;;;26.40;99.90;;;;;;5045235;28;20212;-74
2022/06/25 09:02:52;;;;;;;14.15;12.90;;;26.50;99.90;;;;;;5044928;28;20208;-74
2022/06/25 09:05:25;;;;;;;15.02;13.73;;;26.50;99.90;;;;;;5027630;28;20208;-74
2022/06/25 09:07:58;;;;;;;15.23;13.88;;;26.50;99.90;;;;;;5041913;28;20223;-74
2022/06/25 09:10:26;;;;;;;14.52;13.25;;;26.50;99.90;;;;;;5046798;28;20215;-74
2022/06/25 09:12:54;;;;;;;15.43;13.45;;;26.50;99.90;;;;;;5044041;28;20204;-74
2022/06/25 09:15:22;;;;;;;14.88;13.48;;;26.40;99.90;;;;;;5047013;28;20211;-74
2022/06/25 09:17:50;;;;;;;15.02;13.80;;;26.50;99.90;;;;;;5047062;28;20887;-74
2022/06/25 09:20:18;;;;;;;15.25;13.95;;;26.50;99.90;;;;;;5047317;28;20219;-74
2022/06/25 09:22:57;;;;;;;14.80;13.38;;;26.60;99.90;;;;;;5044553;28;20200;-74
2022/06/25 09:25:25;;;;;;;15.18;13.45;;;26.60;99.90;;;;;;5047185;28;20636;-74
2022/06/25 09:27:52;;;;;;;15.93;14.73;;;26.60;99.90;;;;;;5047153;28;20262;-74
2022/06/25 09:30:20;;;;;;;14.57;13.27;;;26.60;99.90;;;;;;5046317;28;20206;-74
2022/06/25 09:32:50;;;;;;;17.15;14.43;;;26.60;99.90;;;;;;5045690;28;20204;-74
2022/06/25 09:35:30;;;;;;;14.20;13.10;;;26.60;99.90;;;;;;5047169;28;20287;-74
2022/06/25 09:38:04;;;;;;;15.35;13.85;;;26.60;99.90;;;;;;5047143;28;20238;-74
2022/06/25 09:40:31;;;;;;;15.07;13.55;;;26.60;99.90;;;;;;5045800;28;20250;-74
2022/06/25 09:42:58;;;;;;;14.80;13.43;;;26.70;99.90;;;;;;5043244;28;20619;-74
2022/06/25 09:45:25;;;;;;;15.63;14.27;;;26.70;99.90;;;;;;5029147;28;20295;-74
2022/06/25 09:47:54;;;;;;;15.07;13.88;;;26.70;99.90;;;;;;5031299;28;20475;-74
2022/06/25 09:50:21;;;;;;;15.20;13.80;;;26.80;99.90;;;;;;5030509;28;20216;-76
2022/06/25 09:52:54;;;;;;;14.77;13.27;;;26.90;99.90;;;;;;5042523;28;20262;-74
2022/06/25 09:55:25;;;;;;;15.52;13.90;;;26.90;99.90;;;;;;5050361;28;20199;-74
2022/06/25 09:57:53;;;;;;;15.30;13.98;;;26.90;99.90;;;;;;5030814;28;20205;-74
2022/06/25 10:00:20;;;;;;;16.73;15.15;;;26.90;99.90;;;;;;5030469;28;20208;-74
2022/06/25 10:02:49;;;;;;;17.33;13.00;;;27.00;99.90;;;;;;5030910;28;20201;-74
2022/06/25 10:05:18;;;;;;;14.32;12.90;;;27.00;99.90;;;;;;5029937;28;20259;-74
2022/06/25 10:08:04;;;;;;;14.32;13.15;;;26.90;99.90;;;;;;5026895;28;20294;-74
2022/06/25 10:10:34;;;;;;;13.77;12.50;;;26.90;99.90;;;;;;5010270;28;20256;-74
2022/06/25 10:13:02;;;;;;;14.52;13.32;;;26.90;99.90;;;;;;5015083;28;20201;-74
2022/06/25 10:15:30;;;;;;;13.65;12.40;;;26.90;99.90;;;;;;5029998;28;20259;-74
2022/06/25 10:17:57;;;;;;;14.40;13.02;;;26.90;99.90;;;;;;5029548;28;20205;-74
2022/06/25 10:20:24;;;;;;;13.02;11.93;;;26.80;99.90;;;;;;5011267;28;20206;-74
2022/06/25 10:22:52;;;;;;;13.70;12.52;;;26.80;99.90;;;;;;5010235;28;20205;-74
2022/06/25 10:25:21;;;;;;;13.25;12.15;;;26.70;99.90;;;;;;5015514;28;20211;-74
2022/06/25 10:27:51;;;;;;;13.40;12.10;;;26.70;99.90;;;;;;5029690;28;20225;-74
2022/06/25 10:30:38;;;;;;;12.50;11.23;;;26.80;99.90;;;;;;5027861;28;20211;-74
2022/06/25 10:33:05;;;;;;;21.25;12.65;;;26.90;99.90;;;;;;5030231;28;20211;-74
2022/06/25 10:35:34;;;;;;;13.40;12.10;;;27.10;99.90;;;;;;5029817;28;20200;-74
2022/06/25 10:38:03;;;;;;;12.90;11.77;;;27.20;99.90;;;;;;5028449;28;20651;-74
2022/06/25 10:40:31;;;;;;;14.52;11.40;;;27.20;99.90;;;;;;5009740;28;20241;-74
2022/06/25 10:43:04;;;;;;;18.73;12.27;;;27.40;99.90;;;;;;5014230;28;20223;-74
2022/06/25 10:45:49;;;;;;;11.82;10.82;;;27.60;99.90;;;;;;5011942;28;20208;-74
2022/06/25 10:48:18;;;;;;;11.23;10.43;;;27.70;99.90;;;;;;5010486;28;20220;-74
2022/06/25 10:50:49;;;;;;;11.52;10.52;;;27.90;99.90;;;;;;5009561;28;20213;-74
2022/06/25 10:53:17;;;;;;;11.02;9.98;;;28.10;99.90;;;;;;5025249;28;20267;-74
2022/06/25 10:56:23;;;;;;;10.95;9.82;;;28.30;99.90;;;;;;5028924;28;20224;-74
2022/06/25 10:58:52;;;;;;;10.10;9.30;;;28.40;99.90;;;;;;5027276;28;20208;-74
2022/06/25 11:01:28;;;;;;;10.57;9.52;;;28.30;99.90;;;;;;5009553;28;20762;-74
2022/06/25 11:03:57;;;;;;;10.02;9.13;;;28.30;99.90;;;;;;5020028;28;20212;-74
2022/06/25 11:06:26;;;;;;;10.20;9.40;;;28.20;99.90;;;;;;5029347;28;20209;-74
2022/06/25 11:08:54;;;;;;;9.52;8.68;;;28.30;99.90;;;;;;5028276;28;20232;-74
2022/06/25 11:11:29;;;;;;;9.85;9.05;;;28.40;99.90;;;;;;5009833;28;20209;-75
2022/06/25 11:13:57;;;;;;;9.80;9.10;;;28.50;99.90;;;;;;5021425;28;20215;-74
2022/06/25 11:16:25;;;;;;;10.38;8.65;;;28.60;99.90;;;;;;5029364;28;20204;-75
2022/06/25 11:18:54;;;;;;;10.05;9.02;;;28.80;99.90;;;;;;5028638;28;20211;-75
2022/06/25 11:21:30;;;;;;;10.27;9.38;;;29.00;99.90;;;;;;5028784;28;20555;-75
2022/06/25 11:24:11;;;;;;;10.65;9.50;;;29.00;99.90;;;;;;5029226;28;20204;-75
2022/06/25 11:29:27;;;;;;;9.93;8.90;;;28.70;99.90;;;;;;5015558;28;20335;-74
2022/06/25 11:31:55;;;;;;;9.80;9.10;;;28.60;99.90;;;;;;5028792;28;20209;-75
2022/06/25 11:34:23;;;;;;;11.02;9.60;;;28.50;99.90;;;;;;5028348;28;20215;-75
2022/06/25 11:37:03;;;;;;;10.15;9.23;;;28.50;99.90;;;;;;5028468;28;20209;-75
2022/06/25 11:39:30;;;;;;;9.93;9.02;;;28.40;99.90;;;;;;5027939;28;20193;-75
2022/06/25 11:41:58;;;;;;;9.82;8.98;;;28.30;99.90;;;;;;5027545;28;20233;-75
2022/06/25 11:44:26;;;;;;;9.80;8.93;;;28.30;99.90;;;;;;5018739;28;20687;-74
2022/06/25 11:46:54;;;;;;;12.07;10.93;;;28.20;99.90;;;;;;5008982;28;20208;-74
2022/06/25 11:49:22;;;;;;;13.93;9.40;;;28.20;99.90;;;;;;5008520;28;20704;-74
2022/06/25 11:51:51;;;;;;;10.70;9.73;;;28.10;99.90;;;;;;5012359;28;20363;-74
2022/06/25 11:54:23;;;;;;;9.00;8.30;;;28.00;99.90;;;;;;5028402;28;20200;-75
2022/06/25 11:56:52;;;;;;;11.95;8.60;;;28.00;99.90;;;;;;5028323;28;20201;-74
2022/06/25 11:59:32;;;;;;;14.80;8.73;;;28.00;99.90;;;;;;5028027;28;20582;-75
2022/06/25 12:01:59;;;;;;;9.38;8.48;;;28.10;99.90;;;;;;5028327;28;20552;-75
2022/06/25 12:04:27;;;;;;;9.20;8.35;;;28.10;99.90;;;;;;5028206;28;20209;-74
2022/06/25 12:06:54;;;;;;;11.70;8.80;;;28.30;99.90;;;;;;5027317;28;20231;-74
2022/06/25 12:09:23;;;;;;;9.80;9.00;;;28.40;99.90;;;;;;5028128;28;20275;-74
2022/06/25 12:11:53;;;;;;;8.32;7.70;;;28.50;99.90;;;;;;5028131;28;20517;-75
2022/06/25 12:14:21;;;;;;;8.25;7.55;;;28.50;99.90;;;;;;5028134;28;20300;-75
2022/06/25 12:16:50;;;;;;;8.48;7.63;;;28.50;99.90;;;;;;5027612;28;20219;-74
2022/06/25 12:19:17;;;;;;;8.68;7.57;;;28.50;99.90;;;;;;5027619;28;20267;-75
2022/06/25 12:21:44;;;;;;;8.23;7.50;;;28.50;99.90;;;;;;5027895;28;20212;-75
2022/06/25 12:24:13;;;;;;;8.07;7.57;;;28.50;99.90;;;;;;5022049;28;20201;-75
2022/06/25 12:26:43;;;;;;;8.07;7.57;;;28.50;99.90;;;;;;5008293;28;20268;-74
2022/06/25 12:29:12;;;;;;;8.25;7.63;;;28.50;99.90;;;;;;5011574;28;20311;-74
2022/06/25 12:31:39;;;;;;;8.23;7.50;;;28.40;99.90;;;;;;5028007;28;20209;-75
2022/06/25 12:34:08;;;;;;;8.20;7.28;;;28.50;99.90;;;;;;5027896;28;20580;-74
2022/06/25 12:36:37;;;;;;;9.90;7.55;;;28.50;99.90;;;;;;5027873;28;20223;-74
2022/06/25 12:39:20;;;;;;;7.88;7.18;;;28.50;99.90;;;;;;5027954;28;20200;-75
2022/06/25 12:41:48;;;;;;;7.40;6.78;;;28.50;99.90;;;;;;5026602;28;20239;-75
2022/06/25 12:44:15;;;;;;;7.78;7.05;;;28.40;99.90;;;;;;5027648;28;20213;-74
2022/06/25 12:46:42;;;;;;;11.43;7.43;;;28.50;99.90;;;;;;5027445;28;20239;-75
2022/06/25 12:49:12;;;;;;;7.75;7.25;;;28.50;99.90;;;;;;5027513;28;20251;-75
2022/06/25 12:51:40;;;;;;;7.88;6.90;;;28.70;99.90;;;;;;5026550;28;20602;-75
2022/06/25 12:54:07;;;;;;;7.68;6.97;;;28.90;99.90;;;;;;5027544;28;20208;-75
2022/06/25 12:56:34;;;;;;;7.43;6.72;;;29.20;99.80;;;;;;5027393;28;20602;-75
2022/06/25 12:59:02;;;;;;;6.50;6.00;;;29.50;99.90;;;;;;5027270;28;20221;-75
2022/06/25 13:01:29;;;;;;;7.50;6.78;;;29.90;99.10;;;;;;5027307;28;20250;-75
2022/06/25 13:03:56;;;;;;;7.18;6.57;;;30.30;98.50;;;;;;5027728;28;20248;-75
2022/06/25 13:06:24;;;;;;;7.05;6.40;;;30.50;98.30;;;;;;5027186;28;20300;-76
2022/06/25 13:08:51;;;;;;;7.35;6.60;;;30.60;97.60;;;;;;5027284;28;20643;-75
2022/06/25 13:11:18;;;;;;;7.40;6.45;;;30.70;97.70;;;;;;5027425;28;20209;-75
2022/06/25 13:13:45;;;;;;;6.68;6.20;;;30.80;97.20;;;;;;5027195;28;20719;-75
2022/06/25 13:16:12;;;;;;;7.35;6.60;;;30.90;96.90;;;;;;5027257;28;20283;-75
2022/06/25 13:18:39;;;;;;;6.75;6.10;;;31.00;96.60;;;;;;5028449;28;20727;-75
2022/06/25 13:21:09;;;;;;;6.97;6.38;;;31.00;96.40;;;;;;5018188;28;20221;-75
2022/06/25 13:23:37;;;;;;;6.30;5.70;;;30.90;96.60;;;;;;5011081;28;20695;-75
2022/06/25 13:26:07;;;;;;;6.47;5.75;;;30.70;96.50;;;;;;5011084;28;20698;-75
2022/06/25 13:28:33;;;;;;;12.80;5.93;;;30.50;96.60;;;;;;5020799;28;20220;-75
2022/06/25 13:31:00;;;;;;;6.43;5.88;;;30.40;97.10;;;;;;5030585;28;20240;-75
2022/06/25 13:33:27;;;;;;;7.15;5.88;;;30.30;97.40;;;;;;5031012;28;20204;-75
2022/06/25 13:35:54;;;;;;;8.48;6.05;;;30.30;97.60;;;;;;5030836;28;20205;-74
2022/06/25 13:38:21;;;;;;;7.03;6.50;;;30.10;97.60;;;;;;5031218;28;20209;-75
2022/06/25 13:40:49;;;;;;;6.90;6.32;;;30.00;97.40;;;;;;5022488;28;20952;-75
2022/06/25 13:43:16;;;;;;;6.28;5.78;;;30.00;97.90;;;;;;5017463;28;20224;-75
2022/06/25 13:45:43;;;;;;;7.57;6.40;;;29.90;97.30;;;;;;5030414;28;20212;-75
2022/06/25 13:48:09;;;;;;;8.07;5.90;;;29.90;97.40;;;;;;5030318;28;20201;-75